Time;durP1;ratioP1;P1;durP2;ratioP2;P2;SDS_P1;SDS_P2;PMS_P1;PMS_P2;Temp;Humidity;BMP_temperature;BMP_pressure;BME280_temperature;BME280_humidity;BME280_pressure;Samples;Min_cycle;Max_cycle;Signal;HPM_P1;HPM_P2
2023/03/29 00:01:57;;;;;;;3.73;1.77;;;6.30;99.90;;;;;;4997193;28;20540;-84
2023/03/29 00:04:26;;;;;;;1.40;1.37;;;6.30;99.90;;;;;;5014518;28;20222;-84
2023/03/29 00:06:53;;;;;;;1.13;1.03;;;6.30;99.90;;;;;;4998501;28;20228;-84
2023/03/29 00:09:19;;;;;;;1.70;1.23;;;6.30;99.90;;;;;;5013855;28;20191;-84
2023/03/29 00:11:45;;;;;;;0.77;0.77;;;6.40;99.90;;;;;;5032015;28;20182;-85
2023/03/29 00:14:11;;;;;;;1.50;1.40;;;6.40;99.90;;;;;;5031926;28;20211;-84
2023/03/29 00:16:37;;;;;;;2.00;1.80;;;6.40;99.90;;;;;;5012199;28;20222;-84
2023/03/29 00:19:03;;;;;;;1.80;1.53;;;6.40;99.90;;;;;;4997194;28;20221;-84
2023/03/29 00:21:29;;;;;;;0.80;0.63;;;6.40;99.90;;;;;;5031686;28;20707;-84
2023/03/29 00:23:56;;;;;;;2.80;1.87;;;6.40;99.90;;;;;;5023294;28;20191;-84
2023/03/29 00:26:22;;;;;;;1.37;1.27;;;6.40;99.90;;;;;;4993885;28;20238;-84
2023/03/29 00:28:47;;;;;;;3.47;1.30;;;6.40;99.90;;;;;;5010861;28;20737;-85
2023/03/29 00:31:15;;;;;;;2.57;0.97;;;6.40;99.90;;;;;;5002991;28;20248;-84
2023/03/29 00:33:42;;;;;;;1.27;1.17;;;6.40;99.90;;;;;;5013386;28;20214;-85
2023/03/29 00:36:11;;;;;;;4.87;0.97;;;6.40;99.90;;;;;;5013395;28;20217;-84
2023/03/29 00:38:37;;;;;;;1.50;1.40;;;6.40;99.90;;;;;;4997732;28;20226;-84
2023/03/29 00:41:05;;;;;;;1.23;0.93;;;6.40;99.90;;;;;;5031346;28;20218;-83
2023/03/29 00:43:50;;;;;;;1.03;1.03;;;6.40;99.90;;;;;;5009686;28;20214;-85
2023/03/29 00:46:16;;;;;;;2.13;1.27;;;6.40;99.90;;;;;;5011663;28;20261;-84
2023/03/29 00:48:42;;;;;;;2.17;1.73;;;6.30;99.90;;;;;;5013208;28;20583;-85
2023/03/29 00:51:13;;;;;;;1.33;1.07;;;6.30;99.90;;;;;;5008125;28;20182;-85
2023/03/29 00:53:44;;;;;;;1.20;1.10;;;6.40;99.90;;;;;;5014196;28;20175;-84
2023/03/29 00:56:21;;;;;;;0.57;0.57;;;6.30;99.90;;;;;;5027147;28;20221;-85
2023/03/29 00:59:05;;;;;;;3.00;0.80;;;6.30;99.90;;;;;;5010192;28;20210;-85
2023/03/29 01:01:37;;;;;;;1.40;1.27;;;6.30;99.90;;;;;;5007931;28;20210;-84
2023/03/29 01:04:16;;;;;;;1.83;1.10;;;6.30;99.90;;;;;;5030575;28;20218;-85
2023/03/29 01:06:52;;;;;;;11.23;1.80;;;6.30;99.90;;;;;;5012567;28;20668;-85
2023/03/29 01:09:22;;;;;;;2.47;1.73;;;6.30;99.90;;;;;;5030338;28;20205;-84
2023/03/29 01:11:55;;;;;;;0.53;0.53;;;6.30;99.90;;;;;;5013420;28;20598;-84
2023/03/29 01:14:23;;;;;;;2.70;1.80;;;6.30;99.90;;;;;;5030254;28;20211;-84
2023/03/29 01:16:49;;;;;;;1.17;1.17;;;6.30;99.90;;;;;;5012194;28;20753;-85
2023/03/29 01:19:20;;;;;;;1.90;1.80;;;6.30;99.90;;;;;;4980775;28;20305;-85
2023/03/29 01:22:15;;;;;;;0.70;0.70;;;6.30;99.90;;;;;;5025024;28;20215;-85
2023/03/29 01:24:53;;;;;;;1.40;1.37;;;6.20;99.90;;;;;;5030284;28;20313;-85
2023/03/29 01:27:38;;;;;;;1.73;1.43;;;6.30;99.90;;;;;;5027742;28;20574;-84
2023/03/29 01:30:18;;;;;;;1.17;1.17;;;6.20;99.90;;;;;;5012699;28;20186;-84
2023/03/29 01:33:22;;;;;;;1.43;1.33;;;6.20;99.90;;;;;;5030898;28;20175;-85
2023/03/29 01:36:17;;;;;;;0.90;0.83;;;6.20;99.90;;;;;;5010743;28;20202;-85
2023/03/29 01:39:02;;;;;;;1.20;1.10;;;6.30;99.90;;;;;;5028123;28;20564;-85
2023/03/29 01:42:03;;;;;;;1.23;1.13;;;6.30;99.90;;;;;;5030610;28;20288;-85
2023/03/29 01:44:47;;;;;;;0.87;0.87;;;6.30;99.90;;;;;;5027137;28;20212;-85
2023/03/29 01:47:29;;;;;;;1.30;1.20;;;6.20;99.90;;;;;;5028604;28;20235;-85
2023/03/29 01:50:19;;;;;;;2.83;1.37;;;6.20;99.90;;;;;;5026457;28;20314;-85
2023/03/29 01:52:55;;;;;;;2.77;1.10;;;6.20;99.90;;;;;;5025201;28;20302;-85
2023/03/29 01:55:25;;;;;;;2.20;1.10;;;6.20;99.90;;;;;;5012548;28;20676;-84
2023/03/29 01:57:54;;;;;;;2.97;0.63;;;6.20;99.90;;;;;;5026448;28;20316;-85
2023/03/29 02:00:23;;;;;;;0.80;0.80;;;6.20;99.90;;;;;;4991741;28;20195;-85
2023/03/29 02:02:52;;;;;;;1.53;1.17;;;6.20;99.90;;;;;;5021426;28;20179;-85
2023/03/29 02:05:20;;;;;;;0.70;0.70;;;6.20;99.90;;;;;;5009194;28;20222;-85
2023/03/29 02:07:47;;;;;;;1.47;1.37;;;6.20;99.90;;;;;;4993737;28;20241;-84
2023/03/29 02:10:15;;;;;;;0.80;0.67;;;6.20;99.90;;;;;;5010310;28;20233;-84
2023/03/29 02:12:41;;;;;;;0.63;0.63;;;6.20;99.90;;;;;;5014519;28;20245;-85
2023/03/29 02:15:12;;;;;;;0.73;0.73;;;6.20;99.90;;;;;;5016143;28;20609;-85
2023/03/29 02:17:38;;;;;;;1.60;1.40;;;6.20;99.90;;;;;;5028453;28;20186;-85
2023/03/29 02:20:13;;;;;;;0.90;0.90;;;6.30;99.90;;;;;;5017797;28;20220;-83
2023/03/29 02:22:57;;;;;;;1.03;1.03;;;6.20;99.90;;;;;;5010179;28;20256;-84
2023/03/29 02:25:24;;;;;;;2.17;2.00;;;6.30;99.90;;;;;;5015344;28;20286;-85
2023/03/29 02:27:51;;;;;;;0.40;0.40;;;6.20;99.90;;;;;;5033241;28;20318;-85
2023/03/29 02:30:19;;;;;;;1.03;1.03;;;6.30;99.90;;;;;;4999621;28;20179;-85
2023/03/29 02:32:48;;;;;;;0.37;0.37;;;6.20;99.90;;;;;;5016549;28;20274;-85
2023/03/29 02:35:53;;;;;;;0.77;0.77;;;6.30;99.90;;;;;;5032709;28;20221;-84
2023/03/29 02:38:20;;;;;;;0.87;0.87;;;6.20;99.90;;;;;;4997976;28;20316;-85
2023/03/29 02:40:46;;;;;;;0.70;0.53;;;6.20;99.90;;;;;;5032635;28;20655;-85
2023/03/29 02:43:14;;;;;;;2.77;1.63;;;6.30;99.90;;;;;;4999453;28;20571;-85
2023/03/29 02:45:42;;;;;;;0.50;0.50;;;6.30;99.90;;;;;;5012927;28;20665;-84
2023/03/29 02:48:11;;;;;;;0.60;0.60;;;6.30;99.90;;;;;;5015653;28;20218;-84
2023/03/29 02:50:39;;;;;;;1.50;1.40;;;6.30;99.90;;;;;;5014519;28;20188;-85
2023/03/29 02:53:13;;;;;;;0.70;0.70;;;6.30;99.90;;;;;;5015341;28;20210;-84
2023/03/29 02:55:38;;;;;;;0.40;0.40;;;6.30;99.90;;;;;;5015671;28;20530;-85
2023/03/29 02:58:07;;;;;;;2.90;0.70;;;6.30;99.90;;;;;;4995190;28;20222;-84
2023/03/29 03:00:39;;;;;;;1.17;1.17;;;6.30;99.90;;;;;;5006764;28;20250;-84
2023/03/29 03:03:06;;;;;;;1.10;1.00;;;6.30;99.90;;;;;;5015697;28;20225;-84
2023/03/29 03:05:33;;;;;;;1.43;1.33;;;6.30;99.90;;;;;;5016391;28;20183;-85
2023/03/29 03:07:58;;;;;;;1.20;0.80;;;6.30;99.90;;;;;;4982176;28;20231;-85
2023/03/29 03:10:25;;;;;;;1.53;1.40;;;6.30;99.90;;;;;;5032799;28;20345;-84
2023/03/29 03:12:50;;;;;;;0.50;0.50;;;6.30;99.90;;;;;;5015326;28;20647;-84
2023/03/29 03:15:16;;;;;;;1.40;1.23;;;6.30;99.90;;;;;;4998895;28;20185;-84
2023/03/29 03:17:43;;;;;;;0.70;0.70;;;6.30;99.90;;;;;;5033741;28;20286;-84
2023/03/29 03:20:13;;;;;;;2.73;1.23;;;6.20;99.90;;;;;;4983195;28;20558;-84
2023/03/29 03:22:48;;;;;;;0.80;0.80;;;6.20;99.90;;;;;;4998657;28;20264;-84
2023/03/29 03:25:15;;;;;;;0.60;0.60;;;6.20;99.90;;;;;;4983025;28;20233;-84
2023/03/29 03:27:42;;;;;;;0.37;0.37;;;6.20;99.90;;;;;;5015079;28;20702;-85
2023/03/29 03:30:12;;;;;;;0.97;0.87;;;6.20;99.90;;;;;;5030954;28;20173;-84
2023/03/29 03:32:38;;;;;;;0.70;0.70;;;6.20;99.90;;;;;;4999487;28;20262;-85
2023/03/29 03:35:04;;;;;;;3.93;1.57;;;6.20;99.90;;;;;;5007058;28;20306;-85
2023/03/29 03:37:31;;;;;;;2.30;2.10;;;6.30;99.90;;;;;;5014137;28;20257;-85
2023/03/29 03:39:56;;;;;;;1.17;0.70;;;6.20;99.90;;;;;;5032259;28;20229;-85
2023/03/29 03:42:22;;;;;;;1.70;1.20;;;6.30;99.90;;;;;;4982237;28;20309;-85
2023/03/29 03:44:48;;;;;;;2.83;0.90;;;6.30;99.90;;;;;;4998787;28;20697;-85
2023/03/29 03:47:14;;;;;;;1.77;1.67;;;6.30;99.90;;;;;;5014443;28;20226;-85
2023/03/29 03:49:40;;;;;;;3.40;1.27;;;6.30;99.90;;;;;;5014982;28;20569;-85
2023/03/29 03:52:10;;;;;;;1.67;0.97;;;6.30;99.90;;;;;;5024919;28;20241;-85
2023/03/29 03:54:36;;;;;;;0.70;0.70;;;6.30;99.90;;;;;;5011007;28;20246;-85
2023/03/29 03:57:02;;;;;;;1.00;0.60;;;6.30;99.90;;;;;;5014775;28;20190;-85
2023/03/29 03:59:28;;;;;;;0.80;0.80;;;6.30;99.90;;;;;;5000737;28;20213;-85
2023/03/29 04:01:54;;;;;;;1.07;0.93;;;6.30;99.90;;;;;;4997858;28;20571;-85
2023/03/29 04:04:21;;;;;;;0.60;0.47;;;6.30;99.90;;;;;;5014201;28;20664;-85
2023/03/29 04:06:46;;;;;;;0.43;0.43;;;6.40;99.90;;;;;;5013464;28;20228;-85
2023/03/29 04:09:12;;;;;;;1.50;1.50;;;6.40;99.90;;;;;;5030528;28;20235;-84
2023/03/29 04:11:38;;;;;;;1.80;1.63;;;6.40;99.90;;;;;;5023888;28;20572;-85
2023/03/29 04:14:04;;;;;;;0.43;0.43;;;6.40;99.90;;;;;;5030481;28;20652;-85
2023/03/29 04:16:30;;;;;;;0.77;0.77;;;6.40;99.90;;;;;;5031862;28;20613;-85
2023/03/29 04:18:56;;;;;;;2.93;2.17;;;6.40;99.90;;;;;;5013793;28;20726;-85
2023/03/29 04:21:22;;;;;;;1.20;1.17;;;6.40;99.90;;;;;;5013967;28;20214;-85
2023/03/29 04:23:47;;;;;;;0.53;0.53;;;6.40;99.90;;;;;;4991412;28;20213;-85
2023/03/29 04:26:14;;;;;;;1.43;1.33;;;6.40;99.90;;;;;;4997481;28;20234;-85
2023/03/29 04:28:40;;;;;;;1.63;0.97;;;6.40;99.90;;;;;;5031322;28;20222;-85
2023/03/29 04:31:13;;;;;;;1.90;1.00;;;6.40;99.90;;;;;;5013287;28;20238;-85
2023/03/29 04:33:39;;;;;;;0.67;0.53;;;6.40;99.90;;;;;;5025913;28;20252;-85
2023/03/29 04:36:05;;;;;;;1.53;1.43;;;6.40;99.90;;;;;;5013259;28;20244;-84
2023/03/29 04:38:34;;;;;;;0.67;0.67;;;6.30;99.90;;;;;;4997462;28;20389;-85
2023/03/29 04:41:03;;;;;;;1.00;1.00;;;6.40;99.90;;;;;;5011713;28;20303;-85
2023/03/29 04:43:30;;;;;;;1.13;1.03;;;6.40;99.90;;;;;;5006633;28;20261;-85
2023/03/29 04:45:57;;;;;;;1.03;1.03;;;6.40;99.90;;;;;;5010956;28;20617;-84
2023/03/29 04:48:23;;;;;;;0.57;0.57;;;6.40;99.90;;;;;;5013759;28;20352;-84
2023/03/29 04:50:49;;;;;;;1.50;0.87;;;6.40;99.90;;;;;;4992946;28;20656;-83
2023/03/29 04:53:15;;;;;;;2.43;2.33;;;6.40;99.90;;;;;;5030995;28;20225;-84
2023/03/29 04:55:46;;;;;;;1.50;0.73;;;6.40;99.90;;;;;;4979194;28;20556;-84
2023/03/29 04:58:11;;;;;;;0.77;0.77;;;6.40;99.90;;;;;;5013260;28;20280;-84
2023/03/29 05:00:38;;;;;;;2.80;1.70;;;6.50;99.90;;;;;;5030457;28;20671;-84
2023/03/29 05:03:04;;;;;;;1.70;1.60;;;6.50;99.90;;;;;;5013443;28;20647;-83
2023/03/29 05:05:30;;;;;;;1.53;1.43;;;6.50;99.90;;;;;;4995610;28;20183;-83
2023/03/29 05:07:56;;;;;;;2.73;2.00;;;6.60;99.90;;;;;;4996685;28;20232;-82
2023/03/29 05:10:22;;;;;;;1.23;1.13;;;6.60;99.90;;;;;;5020170;28;20218;-82
2023/03/29 05:12:52;;;;;;;1.57;1.37;;;6.60;99.90;;;;;;4996624;28;20260;-82
2023/03/29 05:15:19;;;;;;;4.37;1.67;;;6.70;99.90;;;;;;4994125;28;20581;-83
2023/03/29 05:17:46;;;;;;;1.63;1.53;;;6.70;99.90;;;;;;5006358;28;20841;-82
2023/03/29 05:20:12;;;;;;;3.70;1.73;;;6.70;99.90;;;;;;4993219;28;20683;-82
2023/03/29 05:22:39;;;;;;;2.67;2.47;;;6.80;99.90;;;;;;4991943;28;20207;-82
2023/03/29 05:25:06;;;;;;;5.40;2.03;;;6.80;99.90;;;;;;4996541;28;20234;-82
2023/03/29 05:27:32;;;;;;;2.03;1.83;;;6.90;99.90;;;;;;5004515;28;20587;-82
2023/03/29 05:30:00;;;;;;;4.13;1.77;;;6.90;99.90;;;;;;5012196;28;20195;-82
2023/03/29 05:32:25;;;;;;;2.57;2.37;;;6.90;99.90;;;;;;4996539;28;20218;-82
2023/03/29 05:34:51;;;;;;;1.70;1.60;;;6.90;99.90;;;;;;5001195;28;20210;-82
2023/03/29 05:37:18;;;;;;;4.10;3.23;;;7.00;99.90;;;;;;5030110;28;20218;-81
2023/03/29 05:39:44;;;;;;;3.83;2.90;;;7.00;99.90;;;;;;5012805;28;20238;-82
2023/03/29 05:42:14;;;;;;;4.30;3.40;;;7.00;99.90;;;;;;5021501;28;20333;-81
2023/03/29 05:44:40;;;;;;;11.67;5.47;;;7.00;99.90;;;;;;5012733;28;20225;-82
2023/03/29 05:47:06;;;;;;;1.47;1.43;;;7.00;99.90;;;;;;5016177;28;20309;-81
2023/03/29 05:49:32;;;;;;;4.43;2.30;;;7.00;99.90;;;;;;5014933;28;20219;-82
2023/03/29 05:51:59;;;;;;;3.67;2.83;;;7.00;99.90;;;;;;5016416;28;20225;-82
2023/03/29 05:54:26;;;;;;;1.67;1.57;;;7.00;99.90;;;;;;5008546;28;20578;-82
2023/03/29 05:56:51;;;;;;;3.50;2.50;;;7.00;99.90;;;;;;5031874;28;20698;-82
2023/03/29 05:59:18;;;;;;;3.63;2.37;;;7.00;99.90;;;;;;4971101;28;20218;-83
2023/03/29 06:01:47;;;;;;;9.40;3.57;;;7.00;99.90;;;;;;5013188;28;20206;-82
2023/03/29 06:04:16;;;;;;;1.63;1.53;;;7.00;99.90;;;;;;5030090;28;20219;-84
2023/03/29 06:06:42;;;;;;;1.53;1.13;;;7.00;99.90;;;;;;5026063;28;20676;-82
2023/03/29 06:09:08;;;;;;;2.40;2.30;;;7.00;99.90;;;;;;4988978;28;20194;-82
2023/03/29 06:11:34;;;;;;;3.30;2.30;;;7.00;99.90;;;;;;5008341;28;20224;-82
2023/03/29 06:14:03;;;;;;;1.90;1.73;;;7.10;99.90;;;;;;4993826;28;20214;-82
2023/03/29 06:16:29;;;;;;;2.93;2.70;;;7.10;99.90;;;;;;5000075;28;20662;-83
2023/03/29 06:18:55;;;;;;;2.70;2.47;;;7.10;99.90;;;;;;4999920;28;20215;-83
2023/03/29 06:21:22;;;;;;;3.10;2.07;;;7.10;99.90;;;;;;5006757;28;20194;-83
2023/03/29 06:23:47;;;;;;;2.80;2.33;;;7.10;99.90;;;;;;5016533;28;20182;-82
2023/03/29 06:26:13;;;;;;;1.60;1.50;;;7.20;99.90;;;;;;5033355;28;20642;-83
2023/03/29 06:28:39;;;;;;;2.80;2.00;;;7.20;99.90;;;;;;5015873;28;20310;-83
2023/03/29 06:31:05;;;;;;;2.47;2.10;;;7.20;99.90;;;;;;5023821;28;20687;-82
2023/03/29 06:33:31;;;;;;;3.37;2.43;;;7.20;99.90;;;;;;5033326;28;20663;-83
2023/03/29 06:35:57;;;;;;;1.87;1.73;;;7.20;99.90;;;;;;5015878;28;20175;-82
2023/03/29 06:38:25;;;;;;;4.17;2.73;;;7.20;99.90;;;;;;5032782;28;20320;-82
2023/03/29 06:40:58;;;;;;;1.57;1.33;;;7.30;99.90;;;;;;5012226;28;20652;-82
2023/03/29 06:43:24;;;;;;;2.43;2.27;;;7.30;99.90;;;;;;5010787;28;20215;-81
2023/03/29 06:45:53;;;;;;;2.53;2.03;;;7.20;99.90;;;;;;5014653;28;20741;-82
2023/03/29 06:48:19;;;;;;;7.43;3.73;;;7.30;99.90;;;;;;5032230;28;20530;-82
2023/03/29 06:50:47;;;;;;;2.37;2.17;;;7.30;99.90;;;;;;4999520;28;20179;-82
2023/03/29 06:53:14;;;;;;;5.30;2.23;;;7.40;99.90;;;;;;5024759;28;20607;-82
2023/03/29 06:55:40;;;;;;;2.07;1.33;;;7.40;99.90;;;;;;4996141;28;20206;-82
2023/03/29 06:58:08;;;;;;;3.53;2.93;;;7.50;99.90;;;;;;4997823;28;20622;-82
2023/03/29 07:00:36;;;;;;;4.63;3.37;;;7.50;99.90;;;;;;5000679;28;20242;-81
2023/03/29 07:03:08;;;;;;;2.70;2.50;;;7.60;99.90;;;;;;5032759;28;20197;-82
2023/03/29 07:05:39;;;;;;;2.30;2.20;;;7.70;99.90;;;;;;5031727;28;20241;-82
2023/03/29 07:10:37;;;;;;;2.77;2.60;;;7.90;99.90;;;;;;5025718;28;20211;-82
2023/03/29 07:13:04;;;;;;;3.57;2.30;;;8.00;99.90;;;;;;5012902;28;20210;-83
2023/03/29 07:15:32;;;;;;;3.17;3.07;;;8.00;99.90;;;;;;5027531;28;20377;-82
2023/03/29 07:17:58;;;;;;;4.30;2.77;;;8.10;99.90;;;;;;5012671;28;20579;-84
2023/03/29 07:20:25;;;;;;;3.47;3.17;;;8.10;99.90;;;;;;5031983;28;20687;-81
2023/03/29 07:22:52;;;;;;;4.30;3.60;;;8.20;99.90;;;;;;5013928;28;20285;-86
2023/03/29 07:25:20;;;;;;;7.47;2.00;;;8.20;99.90;;;;;;5031968;28;20203;-83
2023/03/29 07:27:46;;;;;;;3.90;2.37;;;8.40;99.90;;;;;;5024268;28;20222;-83
2023/03/29 07:30:15;;;;;;;5.83;2.87;;;8.40;99.90;;;;;;4981576;28;20298;-83
2023/03/29 07:32:43;;;;;;;4.23;3.87;;;8.50;99.90;;;;;;5013652;28;20503;-83
2023/03/29 07:35:11;;;;;;;2.33;2.20;;;8.50;99.90;;;;;;5031781;28;20207;-83
2023/03/29 07:37:36;;;;;;;5.67;2.50;;;8.60;99.90;;;;;;5013807;28;20217;-83
2023/03/29 07:40:08;;;;;;;4.17;3.20;;;8.60;99.90;;;;;;5007633;28;20222;-83
2023/03/29 07:42:37;;;;;;;8.00;6.00;;;8.70;99.90;;;;;;5004951;28;20219;-83
2023/03/29 07:45:07;;;;;;;3.63;3.23;;;8.80;99.90;;;;;;5011735;28;20222;-83
2023/03/29 07:47:34;;;;;;;3.03;2.83;;;8.80;99.90;;;;;;4998180;28;20233;-84
2023/03/29 07:50:00;;;;;;;3.40;3.00;;;8.90;99.90;;;;;;5014064;28;20301;-83
2023/03/29 07:52:29;;;;;;;12.40;3.00;;;8.90;99.90;;;;;;5013341;28;20288;-84
2023/03/29 07:54:56;;;;;;;2.83;2.60;;;8.90;99.90;;;;;;4993031;28;20230;-84
2023/03/29 07:57:23;;;;;;;7.93;3.67;;;8.90;99.90;;;;;;4996021;28;20206;-83
2023/03/29 07:59:50;;;;;;;5.47;4.57;;;9.00;99.90;;;;;;5009215;28;20185;-82
2023/03/29 08:02:16;;;;;;;3.07;2.77;;;9.00;99.90;;;;;;4994200;28;20215;-83
2023/03/29 08:04:42;;;;;;;9.10;3.00;;;9.00;99.90;;;;;;4981280;28;20210;-83
2023/03/29 08:07:07;;;;;;;4.83;3.53;;;9.10;99.90;;;;;;5030838;28;20222;-83
2023/03/29 08:09:33;;;;;;;3.33;3.03;;;9.10;99.90;;;;;;5014091;28;20215;-84
2023/03/29 08:11:59;;;;;;;6.67;4.57;;;9.20;99.90;;;;;;5009964;28;20671;-83
2023/03/29 08:14:25;;;;;;;2.00;1.77;;;9.30;99.90;;;;;;5011381;28;20218;-83
2023/03/29 08:16:51;;;;;;;4.63;2.97;;;9.30;99.90;;;;;;5001887;28;20663;-83
2023/03/29 08:19:17;;;;;;;3.20;2.67;;;9.50;99.90;;;;;;5013309;28;20276;-84
2023/03/29 08:21:43;;;;;;;4.60;3.30;;;9.50;99.90;;;;;;5011036;28;20510;-84
2023/03/29 08:24:08;;;;;;;5.43;4.90;;;9.70;99.90;;;;;;5026892;28;20193;-84
2023/03/29 08:26:34;;;;;;;5.87;2.53;;;9.70;99.90;;;;;;4994213;28;20179;-83
2023/03/29 08:29:00;;;;;;;12.60;2.30;;;9.80;99.90;;;;;;4992745;28;20230;-83
2023/03/29 08:31:26;;;;;;;2.97;2.67;;;9.80;99.90;;;;;;4980432;28;20218;-83
2023/03/29 08:33:52;;;;;;;5.00;2.33;;;9.70;99.90;;;;;;5012777;28;20284;-83
2023/03/29 08:36:18;;;;;;;3.83;2.57;;;9.70;99.90;;;;;;5009655;28;20195;-84
2023/03/29 08:38:44;;;;;;;4.27;2.63;;;9.70;99.90;;;;;;4995380;28;20231;-83
2023/03/29 08:41:38;;;;;;;19.80;2.90;;;9.70;99.90;;;;;;5025753;28;20320;-83
2023/03/29 08:44:31;;;;;;;3.77;2.93;;;9.80;99.90;;;;;;5005130;28;20211;-83
2023/03/29 08:47:19;;;;;;;6.50;3.63;;;9.90;99.90;;;;;;5027483;28;20242;-82
2023/03/29 08:49:51;;;;;;;6.73;3.93;;;10.10;99.90;;;;;;5007547;28;20226;-82
2023/03/29 08:52:30;;;;;;;6.90;2.73;;;10.00;99.90;;;;;;5007566;28;20217;-83
2023/03/29 08:54:58;;;;;;;9.83;3.70;;;10.00;99.90;;;;;;5012377;28;20221;-83
2023/03/29 08:57:50;;;;;;;5.30;2.33;;;10.10;99.90;;;;;;4995836;28;20677;-83
2023/03/29 09:00:51;;;;;;;7.80;3.80;;;10.20;99.90;;;;;;5023799;28;20273;-83
2023/03/29 09:03:44;;;;;;;8.13;3.47;;;10.30;99.90;;;;;;5013133;28;20273;-83
2023/03/29 09:06:11;;;;;;;5.07;3.00;;;10.50;99.90;;;;;;5007169;28;20683;-83
2023/03/29 09:08:51;;;;;;;2.70;2.50;;;10.60;99.90;;;;;;5012721;28;20206;-83
2023/03/29 09:11:22;;;;;;;11.83;4.20;;;10.60;99.90;;;;;;5012826;28;20298;-83
2023/03/29 09:14:07;;;;;;;2.07;1.87;;;10.70;99.90;;;;;;5010808;28;20219;-82
2023/03/29 09:16:52;;;;;;;3.13;2.83;;;10.80;99.90;;;;;;5008064;28;20622;-83
2023/03/29 09:19:49;;;;;;;3.30;3.00;;;10.80;99.90;;;;;;5010227;28;20341;-83
2023/03/29 09:22:47;;;;;;;8.33;3.23;;;10.60;99.90;;;;;;5010203;28;20298;-83
2023/03/29 09:25:22;;;;;;;4.20;3.47;;;10.80;99.90;;;;;;5027541;28;20660;-82
2023/03/29 09:28:03;;;;;;;4.50;3.67;;;10.80;99.90;;;;;;5010080;28;20234;-83
2023/03/29 09:30:40;;;;;;;8.07;3.03;;;10.80;99.90;;;;;;5003393;28;20272;-85
2023/03/29 09:33:26;;;;;;;3.40;3.03;;;10.70;99.90;;;;;;5024606;28;20182;-83
2023/03/29 09:36:09;;;;;;;4.50;2.70;;;10.70;99.90;;;;;;5029815;28;20214;-86
2023/03/29 09:38:40;;;;;;;6.90;3.87;;;10.90;99.90;;;;;;4999344;28;20241;-84
2023/03/29 09:41:45;;;;;;;6.43;3.67;;;11.10;99.90;;;;;;5012210;28;20280;-84
2023/03/29 09:44:18;;;;;;;6.70;3.17;;;11.00;99.90;;;;;;4952418;28;20228;-85
2023/03/29 09:46:49;;;;;;;4.37;2.77;;;10.90;99.90;;;;;;5006494;28;20245;-85
2023/03/29 09:49:20;;;;;;;5.17;2.90;;;11.00;99.90;;;;;;5010912;28;20305;-85
2023/03/29 09:51:48;;;;;;;4.57;3.80;;;10.90;99.90;;;;;;5011795;28;20696;-83
2023/03/29 09:54:15;;;;;;;9.40;4.10;;;11.00;99.90;;;;;;5011853;28;20190;-84
2023/03/29 09:56:41;;;;;;;3.23;2.80;;;10.90;99.90;;;;;;4996261;28;20206;-83
2023/03/29 09:59:11;;;;;;;7.20;2.53;;;11.00;99.90;;;;;;4995775;28;20214;-84
2023/03/29 10:01:40;;;;;;;11.90;5.60;;;10.90;99.90;;;;;;5027009;28;20215;-83
2023/03/29 10:04:09;;;;;;;6.50;4.17;;;10.90;99.90;;;;;;5011953;28;20680;-84
2023/03/29 10:06:36;;;;;;;3.97;2.93;;;11.00;99.90;;;;;;5029179;28;20228;-84
2023/03/29 10:09:03;;;;;;;4.97;3.57;;;11.10;99.90;;;;;;5026346;28;20276;-84
2023/03/29 10:11:34;;;;;;;13.87;4.77;;;11.30;99.90;;;;;;4993351;28;20249;-83
2023/03/29 10:14:17;;;;;;;5.73;4.77;;;11.30;99.90;;;;;;5005909;28;20887;-84
2023/03/29 10:16:44;;;;;;;13.43;4.70;;;11.50;99.90;;;;;;5027213;28;20246;-84
2023/03/29 10:19:34;;;;;;;3.00;2.70;;;11.70;99.90;;;;;;4985131;28;20311;-84
2023/03/29 10:22:06;;;;;;;5.53;4.07;;;11.60;99.90;;;;;;5004687;28;20231;-84
2023/03/29 10:24:32;;;;;;;13.67;8.03;;;11.50;99.90;;;;;;5010399;28;20211;-87
2023/03/29 10:27:05;;;;;;;17.87;5.23;;;11.70;99.90;;;;;;5011868;28;20221;-85
2023/03/29 10:29:37;;;;;;;5.40;3.97;;;12.10;99.90;;;;;;5012174;28;20261;-84
2023/03/29 10:32:36;;;;;;;4.20;3.80;;;12.40;99.90;;;;;;5008519;28;20227;-83
2023/03/29 10:35:28;;;;;;;8.50;4.83;;;12.10;99.90;;;;;;4997403;28;20660;-82
2023/03/29 10:37:58;;;;;;;11.03;4.30;;;12.10;99.90;;;;;;5010200;28;20269;-84
2023/03/29 10:40:32;;;;;;;9.33;4.57;;;12.40;99.90;;;;;;5030753;28;20221;-84
2023/03/29 10:43:19;;;;;;;6.07;5.47;;;12.40;99.90;;;;;;5014052;28;20214;-84
2023/03/29 10:45:52;;;;;;;10.73;5.33;;;12.30;99.90;;;;;;5015335;28;20217;-88
2023/03/29 10:48:23;;;;;;;7.23;5.00;;;12.50;99.90;;;;;;5014742;28;20254;-89
2023/03/29 10:50:53;;;;;;;12.80;5.07;;;12.30;99.90;;;;;;5016145;28;20189;-87
2023/03/29 10:53:25;;;;;;;7.23;5.63;;;12.30;99.90;;;;;;5035490;28;20211;-85
2023/03/29 10:56:07;;;;;;;8.03;4.50;;;12.30;99.90;;;;;;5006357;28;20215;-87
2023/03/29 10:59:07;;;;;;;7.43;4.10;;;12.40;99.90;;;;;;5025908;28;20684;-86
2023/03/29 11:01:33;;;;;;;9.77;5.40;;;12.20;99.90;;;;;;5015972;28;20708;-92
2023/03/29 11:04:18;;;;;;;11.00;4.83;;;12.30;99.90;;;;;;5016539;28;20214;-93
2023/03/29 11:07:12;;;;;;;3.50;3.20;;;12.30;99.90;;;;;;5013099;28;20753;-92
2023/03/29 11:09:51;;;;;;;9.17;4.37;;;12.50;99.90;;;;;;5027855;28;20219;-92
2023/03/29 11:12:35;;;;;;;5.17;4.13;;;12.80;99.90;;;;;;5026017;28;20185;-91
2023/03/29 11:15:09;;;;;;;6.20;4.33;;;12.60;99.90;;;;;;5010070;28;20178;-91
2023/03/29 11:17:51;;;;;;;8.63;5.20;;;12.50;99.90;;;;;;5015911;28;20206;-93
2023/03/29 11:20:35;;;;;;;8.43;6.40;;;12.50;99.90;;;;;;5001023;28;20241;-88
2023/03/29 11:23:26;;;;;;;10.03;4.60;;;12.50;99.90;;;;;;5002234;28;20304;-90
2023/03/29 11:26:15;;;;;;;5.97;5.03;;;12.50;99.90;;;;;;5012525;28;20225;-90
2023/03/29 11:28:53;;;;;;;8.27;5.63;;;12.50;99.90;;;;;;5013445;28;20310;-91
2023/03/29 11:31:51;;;;;;;11.80;5.77;;;12.50;99.90;;;;;;5012503;28;20668;-89
2023/03/29 11:34:51;;;;;;;11.87;6.37;;;12.70;99.90;;;;;;5012449;28;20215;-91
2023/03/29 11:37:21;;;;;;;21.50;10.83;;;13.00;99.90;;;;;;5024836;28;20448;-87
2023/03/29 11:40:25;;;;;;;18.43;8.90;;;13.10;99.90;;;;;;5015666;28;20222;-91
2023/03/29 11:42:54;;;;;;;11.43;7.37;;;13.10;99.90;;;;;;5025070;28;20242;-88
2023/03/29 11:45:38;;;;;;;17.27;9.23;;;13.50;99.90;;;;;;5011555;28;20218;-89
2023/03/29 11:48:12;;;;;;;16.83;9.20;;;13.40;99.90;;;;;;5026607;28;20663;-90
2023/03/29 11:50:48;;;;;;;10.73;5.47;;;13.20;99.90;;;;;;5015975;28;20690;-88
2023/03/29 11:53:43;;;;;;;17.67;7.40;;;13.10;99.90;;;;;;5028997;28;20214;-88
2023/03/29 11:56:18;;;;;;;12.60;5.97;;;13.40;99.90;;;;;;4991612;28;20211;-88
2023/03/29 11:58:51;;;;;;;57.57;27.40;;;13.00;99.90;;;;;;5012461;28;20309;-88
2023/03/29 12:01:38;;;;;;;11.43;8.10;;;13.10;99.90;;;;;;5015243;28;20292;-90
2023/03/29 12:04:11;;;;;;;47.73;19.87;;;13.10;99.90;;;;;;5012903;28;20317;-89
2023/03/29 12:06:46;;;;;;;22.03;12.70;;;13.20;99.90;;;;;;5031897;28;20218;-89
2023/03/29 12:09:26;;;;;;;24.03;11.90;;;13.40;99.90;;;;;;5027139;28;20626;-89
2023/03/29 12:12:01;;;;;;;18.13;9.90;;;13.30;99.90;;;;;;5028076;28;20179;-89
2023/03/29 12:14:47;;;;;;;9.97;6.53;;;13.30;99.90;;;;;;5014841;28;20211;-89
2023/03/29 12:17:19;;;;;;;33.60;11.23;;;13.40;99.90;;;;;;5012056;28;20564;-90
2023/03/29 12:20:06;;;;;;;15.63;8.97;;;13.40;99.90;;;;;;5014039;28;20608;-88
2023/03/29 12:22:32;;;;;;;27.40;17.03;;;13.50;99.90;;;;;;5010441;28;20210;-91
2023/03/29 12:25:01;;;;;;;10.20;7.17;;;13.60;99.90;;;;;;5025483;28;20694;-88
2023/03/29 12:27:38;;;;;;;16.00;8.47;;;13.50;99.90;;;;;;5007872;28;20237;-88
2023/03/29 12:30:28;;;;;;;11.60;8.47;;;13.30;99.90;;;;;;5012661;28;20171;-88
2023/03/29 12:33:20;;;;;;;9.30;6.53;;;13.40;99.90;;;;;;5005763;28;20199;-89
2023/03/29 12:36:12;;;;;;;13.50;7.50;;;13.40;99.90;;;;;;5031698;28;20194;-89
2023/03/29 12:38:41;;;;;;;13.63;8.93;;;13.70;99.90;;;;;;5010079;28;20235;-90
2023/03/29 12:41:22;;;;;;;12.83;8.00;;;13.80;99.90;;;;;;5031390;28;20245;-89
2023/03/29 12:43:48;;;;;;;12.97;7.63;;;14.00;99.90;;;;;;5011186;28;20670;-89
2023/03/29 12:46:20;;;;;;;12.90;6.60;;;14.00;99.90;;;;;;5006349;28;20206;-90
2023/03/29 12:48:50;;;;;;;14.07;8.80;;;13.80;99.90;;;;;;5014965;28;20230;-91
2023/03/29 12:51:38;;;;;;;14.70;7.70;;;13.60;99.90;;;;;;5012438;28;20174;-89
2023/03/29 12:54:18;;;;;;;13.43;7.43;;;13.60;99.90;;;;;;5011213;28;20171;-91
2023/03/29 12:57:17;;;;;;;6.87;4.27;;;13.80;99.90;;;;;;5027919;28;20194;-90
2023/03/29 12:59:46;;;;;;;15.87;7.07;;;13.60;99.90;;;;;;5027611;28;20204;-91
2023/03/29 13:02:12;;;;;;;12.57;8.67;;;13.80;99.90;;;;;;5031706;28;20298;-87
2023/03/29 13:04:53;;;;;;;11.10;7.30;;;13.80;99.90;;;;;;5013840;28;20268;-90
2023/03/29 13:07:21;;;;;;;14.43;6.70;;;13.80;99.90;;;;;;5014062;28;20218;-89
2023/03/29 13:09:53;;;;;;;14.33;7.47;;;13.90;99.90;;;;;;5001703;28;20928;-89
2023/03/29 13:12:34;;;;;;;17.07;7.50;;;13.90;99.90;;;;;;5003284;28;20564;-90
2023/03/29 13:15:22;;;;;;;10.17;6.43;;;14.00;99.90;;;;;;5010200;28;20273;-93
2023/03/29 13:18:07;;;;;;;12.40;7.80;;;14.00;99.90;;;;;;5013815;28;20217;-90
2023/03/29 13:20:46;;;;;;;11.63;7.27;;;14.30;99.90;;;;;;5013236;28;20202;-90